Terminal Aerodrome Forecast
Issued by NWS Sterling, VA

Home | Current Version | Previous Version | Text Only | Print | Product List | Glossary On
Versions: 1 2 3 4 5 6 7 8 9 10 11 12 13
000
FTUS41 KLWX 012340
TAFMRB
TAF
KMRB 012340Z 0200/0224 VRB03KT P6SM SKC
     FM021000 17005KT P6SM FEW250
     FM021400 19010G20KT P6SM FEW200
     FM021600 19015G27KT P6SM BKN050=

USA.gov is the U.S. government's official web portal to all federal, state and local government web resources and services.